This is the latest recevied weather packets stored in our database for station/object N2QKV-13. If no packets are shown the sender has not sent any weather packets the latest 10 day(s).
| Time | Temp. | Humidity | Pressure | Rain* | Wind** | Luminosity | Snow |
|---|---|---|---|---|---|---|---|
| 1777839003 | 16.11° C | 33% | 1011.2 hPa | 0 mm | - | - | - |
| 1777838703 | 16.11° C | 32% | 1011.2 hPa | 0 mm | - | - | - |
| 1777838403 | 16.11° C | 32% | 1011.3 hPa | 0 mm | - | - | - |
| 1777838103 | 16.67° C | 33% | 1011.2 hPa | 0 mm | - | - | - |
| 1777837804 | 15.56° C | 35% | 1011.2 hPa | 0 mm | - | - | - |
| 1777837503 | 15.56° C | 35% | 1011.3 hPa | 0 mm | - | - | - |
| 1777837204 | 15.56° C | 34% | 1011.2 hPa | 0 mm | - | - | - |
| 1777836904 | 16.11° C | 35% | 1011.3 hPa | 0 mm | - | - | - |
| 1777836603 | 15.56° C | 37% | 1011.4 hPa | 0 mm | - | - | - |
| 1777836304 | 15.56° C | 36% | 1011.6 hPa | 0 mm | - | - | - |
| 1777836004 | 15° C | 36% | 1011.8 hPa | 0 mm | - | - | - |
| 1777835703 | 15° C | 36% | 1011.8 hPa | 0 mm | - | - | - |
| 1777835404 | 15° C | 36% | 1011.8 hPa | 0 mm | - | - | - |
| 1777835104 | 15.56° C | 36% | 1011.8 hPa | 0 mm | - | - | - |
| 1777834804 | 15.56° C | 37% | 1011.7 hPa | 0 mm | - | - | - |
| 1777834503 | 15.56° C | 36% | 1011.9 hPa | 0 mm | - | - | - |
| 1777834204 | 15° C | 38% | 1011.9 hPa | 0 mm | - | - | - |
| 1777833903 | 14.44° C | 40% | 1011.9 hPa | 0 mm | - | - | - |
| 1777833604 | 15° C | 36% | 1011.9 hPa | 0 mm | - | - | - |
| 1777833303 | 15° C | 36% | 1012 hPa | 0 mm | - | - | - |
| 1777833004 | 14.44° C | 40% | 1012 hPa | 0 mm | - | - | - |
| 1777832704 | 14.44° C | 37% | 1012.1 hPa | 0 mm | - | - | - |
| 1777832403 | 13.89° C | 39% | 1012 hPa | 0 mm | - | - | - |
| 1777832104 | 14.44° C | 37% | 1012 hPa | 0 mm | - | - | - |
| 1777831803 | 14.44° C | 40% | 1012 hPa | 0 mm | - | - | - |
* Rain latest hour (hover to see other rain measurements)
** Current wind speed in m/s (hover to see current wind gust speed)